Time;durP1;ratioP1;P1;durP2;ratioP2;P2;SDS_P1;SDS_P2;PMS_P1;PMS_P2;Temp;Humidity;BMP_temperature;BMP_pressure;BME280_temperature;BME280_humidity;BME280_pressure;Samples;Min_cycle;Max_cycle;Signal;HPM_P1;HPM_P2
2021/04/20 00:05:26;;;;;;;36.83;25.48;;;8.00;99.90;;;;;;12382411;28;20494;-82
2021/04/20 00:11:27;;;;;;;44.08;29.13;;;7.80;99.90;;;;;;12401470;28;20049;-83
2021/04/20 00:17:29;;;;;;;40.95;28.63;;;7.60;99.90;;;;;;12392994;28;20574;-82
2021/04/20 00:23:30;;;;;;;47.05;29.92;;;7.60;99.90;;;;;;12400333;28;20045;-82
2021/04/20 00:29:31;;;;;;;43.95;30.33;;;7.50;99.90;;;;;;12399665;28;20038;-81
2021/04/20 00:35:32;;;;;;;48.83;30.50;;;7.50;99.90;;;;;;12381199;28;20096;-81
2021/04/20 00:41:34;;;;;;;47.70;29.92;;;7.40;99.90;;;;;;12393965;28;20100;-82
2021/04/20 00:47:35;;;;;;;54.55;33.70;;;7.00;99.90;;;;;;12383936;28;20138;-81
2021/04/20 00:53:37;;;;;;;48.72;31.80;;;7.10;99.90;;;;;;12392711;28;20049;-82
2021/04/20 00:59:39;;;;;;;49.20;31.45;;;7.20;99.90;;;;;;12396127;28;20086;-82
2021/04/20 01:05:40;;;;;;;49.45;31.58;;;6.90;99.90;;;;;;12379824;28;20139;-82
2021/04/20 01:11:43;;;;;;;52.20;31.15;;;6.90;99.90;;;;;;12380793;28;20507;-81
2021/04/20 01:17:44;;;;;;;45.67;29.85;;;6.90;99.90;;;;;;12398505;28;20050;-82
2021/04/20 01:23:48;;;;;;;48.88;30.92;;;7.00;99.90;;;;;;12396981;28;20078;-82
2021/04/20 01:29:56;;;;;;;52.08;32.35;;;7.00;99.90;;;;;;12378336;28;20042;-82
2021/04/20 01:35:57;;;;;;;53.58;33.20;;;6.90;99.90;;;;;;12408747;28;20089;-82
2021/04/20 01:41:59;;;;;;;49.15;31.25;;;7.00;99.90;;;;;;12391251;28;20061;-81
2021/04/20 01:48:00;;;;;;;49.00;30.05;;;7.00;99.90;;;;;;12408204;28;20150;-81
2021/04/20 01:54:02;;;;;;;53.08;31.92;;;7.00;99.90;;;;;;12392085;28;20395;-82
2021/04/20 02:00:08;;;;;;;52.35;30.73;;;7.00;99.90;;;;;;12388982;28;20109;-82
2021/04/20 02:06:11;;;;;;;45.17;28.35;;;7.00;99.90;;;;;;12392383;28;20447;-81
2021/04/20 02:12:12;;;;;;;41.25;28.20;;;7.00;99.90;;;;;;12394034;28;20046;-81
2021/04/20 02:18:15;;;;;;;43.28;28.40;;;6.90;99.90;;;;;;12387967;28;20082;-81
2021/04/20 02:24:16;;;;;;;39.25;27.83;;;6.90;99.90;;;;;;12386018;28;20452;-81
2021/04/20 02:30:18;;;;;;;44.20;27.65;;;6.90;99.90;;;;;;12393918;28;20157;-82
2021/04/20 02:36:19;;;;;;;46.70;29.08;;;6.90;99.90;;;;;;12388408;28;20081;-82
2021/04/20 02:42:24;;;;;;;42.72;28.17;;;7.00;99.90;;;;;;12393770;28;20590;-81
2021/04/20 02:48:27;;;;;;;45.35;29.48;;;6.80;99.90;;;;;;12389956;28;20058;-82
2021/04/20 02:54:29;;;;;;;57.17;35.50;;;6.70;99.90;;;;;;12397584;28;20122;-81
2021/04/20 03:00:32;;;;;;;60.42;37.40;;;7.00;99.90;;;;;;12394752;28;20140;-81
2021/04/20 03:06:33;;;;;;;55.30;34.28;;;7.00;99.90;;;;;;12393573;28;20093;-82
2021/04/20 03:12:38;;;;;;;50.88;32.85;;;6.90;99.90;;;;;;12409583;28;20042;-82
2021/04/20 03:18:40;;;;;;;50.88;31.58;;;6.60;99.90;;;;;;12392156;28;20158;-82
2021/04/20 03:25:08;;;;;;;49.75;32.60;;;6.40;99.90;;;;;;12394880;28;20111;-82
2021/04/20 03:31:09;;;;;;;50.60;29.25;;;6.30;99.90;;;;;;12410706;28;20046;-82
2021/04/20 03:37:14;;;;;;;49.75;29.60;;;6.40;99.90;;;;;;12397145;28;20606;-82
2021/04/20 03:43:17;;;;;;;;;;;6.40;99.90;;;;;;12393371;28;20160;-82
2021/04/20 03:49:31;;;;;;;63.45;37.80;;;6.60;99.90;;;;;;12404764;28;19930;-82
2021/04/20 03:55:34;;;;;;;57.27;34.87;;;6.60;99.90;;;;;;12390921;28;20459;-81
2021/04/20 04:01:43;;;;;;;64.63;36.10;;;6.80;99.90;;;;;;12398186;28;20549;-82
2021/04/20 04:07:48;;;;;;;57.53;35.15;;;7.00;99.90;;;;;;12393744;28;20058;-82
2021/04/20 04:13:50;;;;;;;61.38;35.63;;;7.10;99.90;;;;;;12392202;28;20117;-82
2021/04/20 04:19:54;;;;;;;57.33;35.17;;;7.20;99.90;;;;;;12396087;28;20105;-82
2021/04/20 04:26:10;;;;;;;56.20;33.67;;;7.20;99.90;;;;;;12386054;28;20048;-82
2021/04/20 04:32:15;;;;;;;51.05;32.17;;;7.10;99.90;;;;;;12389298;28;20166;-81
2021/04/20 04:38:17;;;;;;;48.20;32.05;;;7.00;99.90;;;;;;12404002;28;20479;-81
2021/04/20 04:44:18;;;;;;;56.53;34.63;;;6.90;99.90;;;;;;12389984;28;20077;-81
2021/04/20 04:50:20;;;;;;;52.88;32.55;;;6.90;99.90;;;;;;12389543;28;20517;-82
2021/04/20 04:56:22;;;;;;;52.45;32.03;;;7.00;99.90;;;;;;12388444;28;20072;-82
2021/04/20 05:02:23;;;;;;;46.05;31.60;;;7.00;99.90;;;;;;12383490;28;20116;-82
2021/04/20 05:08:25;;;;;;;53.88;31.25;;;7.00;99.90;;;;;;12387693;28;20461;-82
2021/04/20 05:14:27;;;;;;;47.13;29.48;;;7.20;99.90;;;;;;12395948;28;20129;-82
2021/04/20 05:20:28;;;;;;;49.33;29.05;;;7.70;99.90;;;;;;12397394;28;20046;-82
2021/04/20 05:26:30;;;;;;;40.25;27.30;;;8.10;99.90;;;;;;12409640;28;20080;-82
2021/04/20 05:32:33;;;;;;;45.05;28.45;;;9.10;99.90;;;;;;12403851;28;20181;-82
2021/04/20 05:38:34;;;;;;;42.88;29.50;;;9.70;99.90;;;;;;12412908;28;20509;-82
2021/04/20 05:44:38;;;;;;;45.03;30.38;;;9.70;99.90;;;;;;12411285;28;20427;-82
2021/04/20 05:50:40;;;;;;;43.72;29.20;;;10.20;99.90;;;;;;12397020;28;20069;-82
2021/04/20 05:56:41;;;;;;;41.85;27.55;;;10.90;99.90;;;;;;12410515;28;20384;-82
2021/04/20 06:02:48;;;;;;;44.22;29.25;;;10.70;99.90;;;;;;12407755;28;20054;-82
2021/04/20 06:08:52;;;;;;;42.40;29.52;;;10.40;99.90;;;;;;12386094;28;20080;-82
2021/04/20 06:14:54;;;;;;;43.10;29.33;;;10.00;99.90;;;;;;12394801;28;20632;-82
2021/04/20 06:20:58;;;;;;;49.92;32.10;;;9.90;99.90;;;;;;12394759;28;20790;-82
2021/04/20 06:27:00;;;;;;;48.47;32.77;;;10.00;99.90;;;;;;12392283;28;20077;-82
2021/04/20 06:33:02;;;;;;;48.85;32.03;;;10.10;99.90;;;;;;12401332;28;20106;-82
2021/04/20 06:39:04;;;;;;;45.30;31.75;;;10.30;99.90;;;;;;12398476;28;20046;-83
2021/04/20 06:45:11;;;;;;;46.28;31.88;;;10.40;99.90;;;;;;12389183;28;20470;-83
2021/04/20 06:51:22;;;;;;;44.13;30.77;;;10.30;99.90;;;;;;12398226;28;20047;-82
2021/04/20 06:57:55;;;;;;;52.33;32.90;;;10.30;99.90;;;;;;12403272;28;20053;-83
2021/04/20 07:04:31;;;;;;;48.40;33.03;;;10.60;99.90;;;;;;12399638;28;20050;-83
2021/04/20 07:10:37;;;;;;;47.85;33.03;;;10.80;99.90;;;;;;12456593;28;20046;-82
2021/04/20 07:17:11;;;;;;;48.67;33.58;;;10.80;99.90;;;;;;12453356;28;20072;-83
2021/04/20 07:23:34;;;;;;;49.72;33.65;;;11.00;99.90;;;;;;12397030;28;20062;-82
2021/04/20 07:30:16;;;;;;;47.95;33.38;;;11.20;99.90;;;;;;12410326;28;20053;-83
2021/04/20 07:36:44;;;;;;;48.50;32.85;;;11.30;99.90;;;;;;12399197;28;20057;-82
2021/04/20 07:43:16;;;;;;;47.38;33.33;;;11.40;99.90;;;;;;12412469;28;20053;-82
2021/04/20 07:49:45;;;;;;;51.38;33.95;;;11.30;99.90;;;;;;12405175;28;20084;-83
2021/04/20 07:56:09;;;;;;;50.40;33.10;;;11.60;99.90;;;;;;12370728;28;20047;-83
2021/04/20 08:02:39;;;;;;;53.40;33.50;;;11.70;99.90;;;;;;12404335;28;20468;-83
2021/04/20 08:09:13;;;;;;;45.15;33.22;;;11.90;99.90;;;;;;12379894;28;20445;-82
2021/04/20 08:15:22;;;;;;;53.70;33.67;;;12.00;99.90;;;;;;12373910;28;20050;-83
2021/04/20 08:21:25;;;;;;;37.92;27.38;;;12.20;99.90;;;;;;12381045;28;20148;-83
2021/04/20 08:28:04;;;;;;;38.17;27.45;;;12.40;99.90;;;;;;12406783;28;20054;-82
2021/04/20 08:34:19;;;;;;;35.40;21.60;;;12.70;99.90;;;;;;12383964;28;20097;-83
2021/04/20 08:40:26;;;;;;;25.98;17.70;;;12.80;99.90;;;;;;12385874;28;20054;-82
2021/04/20 08:46:55;;;;;;;27.05;17.05;;;13.00;99.90;;;;;;12384228;28;20054;-83
2021/04/20 08:53:27;;;;;;;26.23;17.08;;;13.00;99.90;;;;;;12398702;28;20046;-82
2021/04/20 08:59:59;;;;;;;26.17;18.17;;;12.90;99.90;;;;;;12376423;28;20061;-82
2021/04/20 09:06:07;;;;;;;29.63;17.52;;;13.20;99.90;;;;;;12399564;28;20161;-83
2021/04/20 09:12:11;;;;;;;26.55;16.98;;;13.40;99.90;;;;;;12386375;28;20054;-83
2021/04/20 09:18:32;;;;;;;19.70;13.07;;;13.60;99.90;;;;;;12385327;28;20085;-82
2021/04/20 09:25:15;;;;;;;19.95;13.70;;;13.90;99.90;;;;;;12386951;28;20050;-82
2021/04/20 09:31:21;;;;;;;21.88;15.45;;;14.30;99.90;;;;;;12388999;28;20074;-83
2021/04/20 09:37:23;;;;;;;18.38;13.77;;;14.70;99.90;;;;;;12396947;28;20181;-83
2021/04/20 09:43:24;;;;;;;22.58;15.27;;;15.00;99.90;;;;;;12403163;28;20106;-83
2021/04/20 09:49:40;;;;;;;14.13;9.52;;;14.90;99.90;;;;;;12393487;28;20132;-83
2021/04/20 09:55:45;;;;;;;18.17;11.45;;;15.30;99.90;;;;;;12411320;28;20081;-83
2021/04/20 10:01:56;;;;;;;12.88;8.65;;;15.60;99.90;;;;;;12395699;28;20061;-83
2021/04/20 10:07:57;;;;;;;16.63;8.18;;;15.80;99.90;;;;;;12399337;28;20126;-83
2021/04/20 10:14:01;;;;;;;10.68;6.03;;;16.10;99.90;;;;;;12409988;28;20069;-83
2021/04/20 10:20:23;;;;;;;;;;;16.20;99.90;;;;;;12403377;28;20086;-83
2021/04/20 10:26:56;;;;;;;11.73;7.80;;;16.40;99.90;;;;;;12394084;28;20016;-83
2021/04/20 10:32:58;;;;;;;9.25;4.03;;;16.60;99.90;;;;;;12390106;28;20046;-83
2021/04/20 10:39:07;;;;;;;9.25;4.35;;;16.60;99.90;;;;;;12392012;28;20166;-83
2021/04/20 10:45:09;;;;;;;7.80;4.38;;;16.80;99.90;;;;;;12392743;28;20047;-83
2021/04/20 10:51:12;;;;;;;10.98;4.35;;;17.20;99.90;;;;;;12387160;28;20525;-83
2021/04/20 10:57:14;;;;;;;8.90;4.40;;;17.20;99.90;;;;;;12408403;28;20050;-83
2021/04/20 11:03:24;;;;;;;8.48;4.60;;;17.10;99.90;;;;;;12386596;28;20478;-83
2021/04/20 11:09:32;;;;;;;9.55;4.75;;;;;;;;;;12386968;28;20050;-83
2021/04/20 11:15:34;;;;;;;8.75;4.20;;;17.50;99.90;;;;;;12391319;28;20620;-83
2021/04/20 11:21:39;;;;;;;10.93;5.03;;;17.40;99.90;;;;;;12383257;28;20077;-84
2021/04/20 11:27:41;;;;;;;12.70;5.50;;;17.60;99.90;;;;;;12392647;28;20129;-83
2021/04/20 11:34:14;;;;;;;11.15;4.68;;;17.50;99.90;;;;;;12407661;28;20038;-83
2021/04/20 11:40:40;;;;;;;9.18;4.90;;;17.80;99.90;;;;;;12386008;28;20045;-84
2021/04/20 11:46:48;;;;;;;9.43;4.35;;;17.60;99.90;;;;;;12403235;28;20137;-83
2021/04/20 11:53:04;;;;;;;9.55;4.50;;;18.10;99.90;;;;;;12402263;28;20477;-83
2021/04/20 11:59:07;;;;;;;8.30;4.43;;;18.50;99.90;;;;;;12388276;28;20092;-83
2021/04/20 12:05:11;;;;;;;6.38;4.63;;;19.00;99.90;;;;;;12393140;28;20171;-83
2021/04/20 12:11:14;;;;;;;11.00;5.38;;;19.00;99.90;;;;;;12403858;28;20129;-83
2021/04/20 12:17:39;;;;;;;13.33;5.30;;;18.60;99.90;;;;;;12390715;28;20070;-83
2021/04/20 12:23:48;;;;;;;10.05;5.38;;;19.00;99.90;;;;;;12387526;28;20050;-84
2021/04/20 12:29:50;;;;;;;10.07;5.20;;;19.40;99.90;;;;;;12386101;28;23326;-83
2021/04/20 12:36:23;;;;;;;7.75;5.05;;;19.30;99.90;;;;;;12371147;28;20046;-84
2021/04/20 12:42:30;;;;;;;8.23;5.10;;;18.90;99.90;;;;;;12385979;28;20101;-83
2021/04/20 12:48:32;;;;;;;8.80;3.85;;;19.20;99.90;;;;;;12392659;28;20155;-83
2021/04/20 12:54:38;;;;;;;8.82;4.00;;;19.10;99.90;;;;;;12383578;28;20109;-84
2021/04/20 13:00:40;;;;;;;10.70;4.30;;;19.50;99.90;;;;;;12388290;28;20056;-84
2021/04/20 13:06:47;;;;;;;12.38;4.60;;;19.30;99.90;;;;;;12387352;28;20060;-83
2021/04/20 13:12:55;;;;;;;9.00;4.75;;;19.40;99.90;;;;;;12387197;28;20085;-84
2021/04/20 13:19:01;;;;;;;9.30;4.88;;;19.40;99.90;;;;;;12378879;28;20073;-84
2021/04/20 13:25:05;;;;;;;9.60;4.50;;;19.80;99.90;;;;;;12405966;28;20047;-83
2021/04/20 13:31:16;;;;;;;10.40;4.38;;;19.60;99.20;;;;;;12416028;28;20499;-83
2021/04/20 13:37:32;;;;;;;11.68;4.25;;;19.70;99.90;;;;;;12402457;28;20050;-83
2021/04/20 13:43:36;;;;;;;15.02;4.07;;;19.90;99.90;;;;;;12458266;28;20066;-84
2021/04/20 13:49:46;;;;;;;;;;;19.30;99.90;;;;;;12427935;28;20156;-84
2021/04/20 13:55:49;;;;;;;10.82;4.18;;;19.50;99.90;;;;;;12403394;28;20278;-83
2021/04/20 14:01:52;;;;;;;10.27;4.90;;;19.00;99.90;;;;;;12388576;28;20046;-83
2021/04/20 14:07:55;;;;;;;8.60;4.50;;;19.30;99.90;;;;;;12392539;28;21045;-83
2021/04/20 14:13:57;;;;;;;8.38;3.20;;;19.60;99.90;;;;;;12393354;28;20058;-83
2021/04/20 14:20:01;;;;;;;9.43;4.25;;;19.60;99.90;;;;;;12396927;28;20066;-84
2021/04/20 14:26:03;;;;;;;7.32;4.47;;;19.80;99.90;;;;;;12392817;28;20043;-83
2021/04/20 14:32:10;;;;;;;6.78;3.90;;;20.10;99.90;;;;;;12387712;28;20306;-83
2021/04/20 14:38:12;;;;;;;8.85;4.75;;;20.00;99.90;;;;;;12383834;28;23046;-83
2021/04/20 14:44:23;;;;;;;10.45;4.50;;;19.90;99.90;;;;;;12393875;28;20045;-83
2021/04/20 14:50:29;;;;;;;5.30;3.70;;;19.80;99.90;;;;;;12401568;28;20491;-83
2021/04/20 14:56:34;;;;;;;9.35;3.88;;;19.90;99.90;;;;;;12389030;28;20431;-83
2021/04/20 15:02:40;;;;;;;10.65;5.05;;;20.00;99.90;;;;;;12397948;28;20467;-85
2021/04/20 15:08:59;;;;;;;11.98;4.53;;;19.80;96.80;;;;;;12390592;28;20096;-83
2021/04/20 15:15:08;;;;;;;10.07;3.58;;;19.50;97.90;;;;;;12399993;28;20514;-83
2021/04/20 15:21:17;;;;;;;8.15;3.38;;;19.80;99.40;;;;;;12385048;28;20042;-83
2021/04/20 15:27:41;;;;;;;6.63;3.22;;;20.00;90.40;;;;;;12405836;28;20049;-83
2021/04/20 15:33:44;;;;;;;4.45;2.65;;;20.00;99.90;;;;;;12398988;28;20072;-83
2021/04/20 15:39:48;;;;;;;7.35;3.13;;;20.10;99.90;;;;;;12385911;28;20075;-83
2021/04/20 15:45:54;;;;;;;6.78;3.30;;;19.90;91.90;;;;;;12386002;28;20092;-83
2021/04/20 15:51:59;;;;;;;7.70;3.10;;;20.00;98.50;;;;;;12383557;28;20117;-82
2021/04/20 15:58:12;;;;;;;6.85;3.10;;;19.80;95.20;;;;;;12387199;28;20103;-83
2021/04/20 16:04:17;;;;;;;7.13;2.95;;;19.50;92.90;;;;;;12381768;28;20050;-83
2021/04/20 16:10:24;;;;;;;8.27;3.25;;;19.70;92.60;;;;;;12382204;28;20088;-83
2021/04/20 16:16:27;;;;;;;8.70;2.97;;;20.20;99.90;;;;;;12383456;28;20053;-83
2021/04/20 16:22:30;;;;;;;4.88;2.90;;;20.60;95.40;;;;;;12383493;28;20134;-83
2021/04/20 16:28:34;;;;;;;5.32;2.90;;;20.60;98.90;;;;;;12385522;28;20397;-83
2021/04/20 16:34:38;;;;;;;5.88;2.83;;;20.80;94.10;;;;;;12393547;28;20062;-83
2021/04/20 16:41:07;;;;;;;6.47;3.13;;;21.10;97.40;;;;;;12392186;28;20549;-83
2021/04/20 16:47:14;;;;;;;6.63;3.20;;;21.50;97.20;;;;;;12398723;28;20458;-82
2021/04/20 16:53:36;;;;;;;6.50;3.28;;;21.70;90.90;;;;;;12398749;28;20045;-82
2021/04/20 17:00:07;;;;;;;7.22;3.17;;;21.20;93.80;;;;;;12386658;28;20131;-83
2021/04/20 17:06:18;;;;;;;6.80;3.00;;;21.00;90.30;;;;;;12366042;28;20444;-83
2021/04/20 17:12:45;;;;;;;8.30;2.97;;;20.70;93.50;;;;;;12386247;28;20069;-83
2021/04/20 17:19:11;;;;;;;7.55;2.88;;;20.70;91.80;;;;;;12397830;28;20111;-82
2021/04/20 17:25:31;;;;;;;7.43;3.95;;;20.80;95.50;;;;;;12409445;28;20106;-83
2021/04/20 17:31:59;;;;;;;5.57;3.05;;;20.60;97.20;;;;;;12410932;28;20053;-83
2021/04/20 17:38:42;;;;;;;7.47;3.05;;;20.50;98.90;;;;;;12406379;28;20509;-83
2021/04/20 17:45:03;;;;;;;9.63;3.10;;;20.30;98.60;;;;;;12385161;28;20057;-83
2021/04/20 17:51:29;;;;;;;8.85;3.58;;;19.60;96.60;;;;;;12413364;28;20066;-83
2021/04/20 17:57:59;;;;;;;9.23;3.30;;;19.00;99.90;;;;;;12398907;28;20085;-83
2021/04/20 18:04:34;;;;;;;7.15;3.47;;;18.30;99.90;;;;;;12401974;28;20633;-83
2021/04/20 18:11:01;;;;;;;8.73;4.13;;;17.40;99.90;;;;;;12391170;28;20061;-83
2021/04/20 18:17:12;;;;;;;6.15;3.80;;;16.60;99.90;;;;;;12402055;28;20054;-82
2021/04/20 18:23:41;;;;;;;9.32;4.53;;;15.70;99.90;;;;;;12393506;28;20053;-83
2021/04/20 18:30:09;;;;;;;8.40;3.80;;;15.40;99.90;;;;;;12415523;28;20128;-83
2021/04/20 18:36:35;;;;;;;10.68;4.07;;;14.90;99.90;;;;;;12415043;28;20137;-83
2021/04/20 18:42:42;;;;;;;10.40;3.88;;;14.60;99.90;;;;;;12421373;28;20141;-83
2021/04/20 18:49:01;;;;;;;8.18;3.92;;;14.10;99.90;;;;;;12401618;28;20134;-82
2021/04/20 18:55:44;;;;;;;10.70;3.92;;;13.70;99.90;;;;;;12394539;28;20049;-82
2021/04/20 19:01:58;;;;;;;7.40;3.92;;;13.30;99.90;;;;;;12392316;28;20046;-81
2021/04/20 19:08:26;;;;;;;6.70;4.13;;;13.30;99.90;;;;;;12391041;28;20046;-81
2021/04/20 19:14:52;;;;;;;7.80;4.20;;;13.20;99.90;;;;;;12413287;28;20184;-82
2021/04/20 19:21:16;;;;;;;7.38;4.18;;;12.80;99.90;;;;;;12404066;28;20046;-82
2021/04/20 19:27:36;;;;;;;10.93;4.72;;;12.60;99.90;;;;;;12387807;28;20160;-82
2021/04/20 19:33:55;;;;;;;8.90;4.65;;;12.70;99.90;;;;;;12405940;28;20045;-81
2021/04/20 19:40:14;;;;;;;9.77;5.07;;;12.10;99.90;;;;;;12391508;28;20478;-81
2021/04/20 19:46:19;;;;;;;8.02;4.95;;;12.00;99.90;;;;;;12390657;28;20058;-81
2021/04/20 19:52:35;;;;;;;10.82;5.35;;;11.70;99.90;;;;;;12409221;28;20654;-81
2021/04/20 19:58:39;;;;;;;9.68;5.15;;;11.50;99.90;;;;;;12391671;28;20046;-82
2021/04/20 20:04:56;;;;;;;10.23;5.07;;;11.50;99.90;;;;;;12392826;28;20046;-82
2021/04/20 20:11:02;;;;;;;10.50;5.57;;;11.50;99.90;;;;;;12439626;28;20106;-82
2021/04/20 20:17:10;;;;;;;10.63;6.07;;;11.30;99.90;;;;;;12406384;28;20151;-81
2021/04/20 20:23:12;;;;;;;7.30;5.20;;;11.10;99.90;;;;;;12386185;28;20050;-81
2021/04/20 20:29:16;;;;;;;9.30;5.50;;;11.00;99.90;;;;;;12381864;28;20055;-81
2021/04/20 20:35:24;;;;;;;8.83;5.70;;;10.80;99.90;;;;;;12390976;28;20050;-81
2021/04/20 20:41:53;;;;;;;10.68;5.65;;;10.60;99.90;;;;;;12383035;28;20069;-81
2021/04/20 20:48:07;;;;;;;11.00;6.38;;;10.40;99.90;;;;;;12374525;28;20069;-81
2021/04/20 20:54:10;;;;;;;10.23;6.33;;;10.40;99.90;;;;;;12396447;28;20133;-81
2021/04/20 21:00:15;;;;;;;9.98;5.82;;;10.40;99.90;;;;;;12386747;28;20046;-81
2021/04/20 21:06:17;;;;;;;;;;;10.30;99.90;;;;;;12393496;28;20054;-81
2021/04/20 21:12:33;;;;;;;9.90;6.05;;;10.20;99.90;;;;;;12376362;28;20686;-81
2021/04/20 21:18:48;;;;;;;9.55;5.70;;;10.10;99.90;;;;;;12393559;28;20050;-81
2021/04/20 21:24:53;;;;;;;;;;;10.10;99.90;;;;;;12379527;28;20140;-81
2021/04/20 21:30:57;;;;;;;10.73;5.75;;;10.20;99.90;;;;;;12379094;28;19922;-81
2021/04/20 21:36:59;;;;;;;10.50;5.85;;;10.30;99.90;;;;;;12404235;28;20105;-81
2021/04/20 21:43:03;;;;;;;14.80;5.90;;;10.40;99.90;;;;;;12386247;28;20562;-81
2021/04/20 21:49:11;;;;;;;11.32;6.35;;;10.40;99.90;;;;;;12391603;28;20062;-81
2021/04/20 21:55:24;;;;;;;13.88;5.63;;;10.50;99.90;;;;;;12406232;28;20050;-81
2021/04/20 22:01:31;;;;;;;8.90;5.80;;;9.90;99.90;;;;;;12413667;28;20049;-81
2021/04/20 22:07:49;;;;;;;11.05;6.00;;;9.80;99.90;;;;;;12397924;28;20184;-81
2021/04/20 22:13:55;;;;;;;9.68;5.70;;;9.80;99.90;;;;;;12394677;28;20078;-81
2021/04/20 22:20:04;;;;;;;14.15;5.85;;;9.50;99.90;;;;;;12414486;28;20535;-81
2021/04/20 22:26:16;;;;;;;8.70;5.78;;;9.50;99.90;;;;;;12402411;28;20061;-81
2021/04/20 22:32:21;;;;;;;10.15;6.07;;;9.50;99.90;;;;;;12389319;28;20069;-81
2021/04/20 22:38:30;;;;;;;11.93;6.00;;;9.20;99.90;;;;;;12386496;28;20213;-81
2021/04/20 22:44:43;;;;;;;14.27;5.15;;;9.10;99.90;;;;;;12383654;28;20138;-81
2021/04/20 22:50:46;;;;;;;12.63;5.25;;;9.00;99.90;;;;;;12391318;28;20057;-81
2021/04/20 22:57:09;;;;;;;9.27;5.18;;;9.00;99.90;;;;;;12389281;28;20050;-81
2021/04/20 23:03:19;;;;;;;11.07;4.68;;;9.00;99.90;;;;;;12381218;28;20100;-81
2021/04/20 23:09:23;;;;;;;8.35;4.85;;;9.00;99.90;;;;;;12390897;28;20061;-81
2021/04/20 23:15:25;;;;;;;8.98;4.30;;;9.20;99.90;;;;;;12384758;28;20099;-81
2021/04/20 23:21:28;;;;;;;11.65;4.50;;;9.20;99.90;;;;;;12389272;28;20125;-81
2021/04/20 23:27:58;;;;;;;8.07;4.22;;;9.00;99.90;;;;;;12384921;28;20129;-81
2021/04/20 23:34:01;;;;;;;6.82;4.00;;;9.20;99.90;;;;;;12384653;28;20130;-81
2021/04/20 23:40:04;;;;;;;6.80;4.15;;;9.00;99.90;;;;;;12389663;28;20099;-81
2021/04/20 23:46:07;;;;;;;9.48;4.00;;;8.60;99.90;;;;;;12380216;28;20077;-81
2021/04/20 23:52:11;;;;;;;7.05;3.53;;;8.50;99.90;;;;;;12379905;28;20188;-81
2021/04/20 23:58:14;;;;;;;5.23;3.60;;;8.30;99.90;;;;;;12385210;28;20073;-81
